sensor_id;sensor_type;location;lat;lon;timestamp;P1;durP1;ratioP1;P2;durP2;ratioP2
64678;SDS011;51094;53.864;27.676;2024-02-28T00:00:00;3.55;;;3.45;;
64678;SDS011;51094;53.864;27.676;2024-02-28T00:02:34;3.30;;;3.20;;
64678;SDS011;51094;53.864;27.676;2024-02-28T00:05:04;3.60;;;3.50;;
64678;SDS011;51094;53.864;27.676;2024-02-28T00:07:33;3.40;;;3.30;;
64678;SDS011;51094;53.864;27.676;2024-02-28T00:10:04;3.28;;;3.17;;
64678;SDS011;51094;53.864;27.676;2024-02-28T00:12:31;3.38;;;3.30;;
64678;SDS011;51094;53.864;27.676;2024-02-28T00:15:06;3.03;;;2.92;;
64678;SDS011;51094;53.864;27.676;2024-02-28T00:17:38;3.47;;;3.38;;
64678;SDS011;51094;53.864;27.676;2024-02-28T00:20:10;3.42;;;3.33;;
64678;SDS011;51094;53.864;27.676;2024-02-28T00:22:38;3.50;;;3.40;;
64678;SDS011;51094;53.864;27.676;2024-02-28T00:25:15;3.60;;;3.50;;
64678;SDS011;51094;53.864;27.676;2024-02-28T00:27:44;3.70;;;3.60;;
64678;SDS011;51094;53.864;27.676;2024-02-28T00:30:13;3.50;;;3.40;;
64678;SDS011;51094;53.864;27.676;2024-02-28T00:32:40;3.53;;;3.42;;
64678;SDS011;51094;53.864;27.676;2024-02-28T00:35:12;3.90;;;3.80;;
64678;SDS011;51094;53.864;27.676;2024-02-28T00:40:12;3.83;;;3.72;;
64678;SDS011;51094;53.864;27.676;2024-02-28T00:42:44;4.50;;;4.40;;
64678;SDS011;51094;53.864;27.676;2024-02-28T00:45:17;5.82;;;5.63;;
64678;SDS011;51094;53.864;27.676;2024-02-28T00:47:48;5.50;;;5.30;;
64678;SDS011;51094;53.864;27.676;2024-02-28T00:50:21;5.30;;;5.20;;
64678;SDS011;51094;53.864;27.676;2024-02-28T00:53:06;5.10;;;5.00;;
64678;SDS011;51094;53.864;27.676;2024-02-28T00:55:36;5.45;;;5.28;;
64678;SDS011;51094;53.864;27.676;2024-02-28T00:58:11;4.78;;;4.68;;
64678;SDS011;51094;53.864;27.676;2024-02-28T01:00:38;4.28;;;4.18;;
64678;SDS011;51094;53.864;27.676;2024-02-28T01:03:17;4.20;;;4.10;;
64678;SDS011;51094;53.864;27.676;2024-02-28T01:05:46;4.10;;;4.00;;
64678;SDS011;51094;53.864;27.676;2024-02-28T01:08:19;4.63;;;4.53;;
64678;SDS011;51094;53.864;27.676;2024-02-28T01:10:52;4.30;;;4.15;;
64678;SDS011;51094;53.864;27.676;2024-02-28T01:13:28;3.97;;;3.88;;
64678;SDS011;51094;53.864;27.676;2024-02-28T01:16:06;4.00;;;3.90;;
64678;SDS011;51094;53.864;27.676;2024-02-28T01:18:38;3.30;;;3.20;;
64678;SDS011;51094;53.864;27.676;2024-02-28T01:21:11;3.90;;;3.80;;
64678;SDS011;51094;53.864;27.676;2024-02-28T01:23:45;4.25;;;4.15;;
64678;SDS011;51094;53.864;27.676;2024-02-28T01:26:23;4.20;;;4.10;;
64678;SDS011;51094;53.864;27.676;2024-02-28T01:29:03;4.00;;;3.90;;
64678;SDS011;51094;53.864;27.676;2024-02-28T01:31:37;3.58;;;3.47;;
64678;SDS011;51094;53.864;27.676;2024-02-28T01:34:17;3.60;;;3.50;;
64678;SDS011;51094;53.864;27.676;2024-02-28T01:36:52;3.78;;;3.67;;
64678;SDS011;51094;53.864;27.676;2024-02-28T01:39:25;3.60;;;3.50;;
64678;SDS011;51094;53.864;27.676;2024-02-28T01:41:55;3.00;;;3.00;;
64678;SDS011;51094;53.864;27.676;2024-02-28T01:44:24;3.50;;;3.40;;
64678;SDS011;51094;53.864;27.676;2024-02-28T01:46:54;3.47;;;3.38;;
64678;SDS011;51094;53.864;27.676;2024-02-28T01:49:25;3.53;;;3.42;;
64678;SDS011;51094;53.864;27.676;2024-02-28T01:52:01;3.63;;;3.53;;
64678;SDS011;51094;53.864;27.676;2024-02-28T01:54:34;3.50;;;3.40;;
64678;SDS011;51094;53.864;27.676;2024-02-28T01:57:07;3.40;;;3.30;;
64678;SDS011;51094;53.864;27.676;2024-02-28T01:59:38;3.33;;;3.25;;
64678;SDS011;51094;53.864;27.676;2024-02-28T02:02:16;3.25;;;3.15;;
64678;SDS011;51094;53.864;27.676;2024-02-28T02:04:48;3.85;;;3.75;;
64678;SDS011;51094;53.864;27.676;2024-02-28T02:07:22;3.10;;;3.05;;
64678;SDS011;51094;53.864;27.676;2024-02-28T02:10:13;3.13;;;3.03;;
64678;SDS011;51094;53.864;27.676;2024-02-28T02:12:42;3.50;;;3.40;;
64678;SDS011;51094;53.864;27.676;2024-02-28T02:15:20;3.60;;;3.50;;
64678;SDS011;51094;53.864;27.676;2024-02-28T02:17:47;3.30;;;3.20;;
64678;SDS011;51094;53.864;27.676;2024-02-28T02:20:32;3.40;;;3.30;;
64678;SDS011;51094;53.864;27.676;2024-02-28T02:23:06;3.38;;;3.28;;
64678;SDS011;51094;53.864;27.676;2024-02-28T02:25:46;3.47;;;3.38;;
64678;SDS011;51094;53.864;27.676;2024-02-28T02:28:17;3.83;;;3.72;;
64678;SDS011;51094;53.864;27.676;2024-02-28T02:30:48;3.75;;;3.65;;
64678;SDS011;51094;53.864;27.676;2024-02-28T02:33:30;4.25;;;4.15;;
64678;SDS011;51094;53.864;27.676;2024-02-28T02:36:05;4.25;;;4.15;;
64678;SDS011;51094;53.864;27.676;2024-02-28T02:38:39;4.50;;;4.40;;
64678;SDS011;51094;53.864;27.676;2024-02-28T02:41:09;4.65;;;4.50;;
64678;SDS011;51094;53.864;27.676;2024-02-28T02:43:37;4.20;;;4.10;;
64678;SDS011;51094;53.864;27.676;2024-02-28T02:46:04;4.10;;;4.00;;
64678;SDS011;51094;53.864;27.676;2024-02-28T02:48:32;4.00;;;3.90;;
64678;SDS011;51094;53.864;27.676;2024-02-28T02:51:04;3.65;;;3.55;;
64678;SDS011;51094;53.864;27.676;2024-02-28T02:53:31;3.83;;;3.72;;
64678;SDS011;51094;53.864;27.676;2024-02-28T02:56:06;3.55;;;3.45;;
64678;SDS011;51094;53.864;27.676;2024-02-28T02:58:38;3.60;;;3.50;;
64678;SDS011;51094;53.864;27.676;2024-02-28T03:01:05;3.55;;;3.45;;
64678;SDS011;51094;53.864;27.676;2024-02-28T03:03:43;3.40;;;3.30;;
64678;SDS011;51094;53.864;27.676;2024-02-28T03:06:13;3.83;;;3.72;;
64678;SDS011;51094;53.864;27.676;2024-02-28T03:08:40;3.47;;;3.42;;
64678;SDS011;51094;53.864;27.676;2024-02-28T03:11:07;4.00;;;3.90;;
64678;SDS011;51094;53.864;27.676;2024-02-28T03:13:35;3.90;;;3.80;;
64678;SDS011;51094;53.864;27.676;2024-02-28T03:16:05;4.07;;;3.97;;
64678;SDS011;51094;53.864;27.676;2024-02-28T03:18:32;4.63;;;4.43;;
64678;SDS011;51094;53.864;27.676;2024-02-28T03:21:00;4.65;;;4.55;;
64678;SDS011;51094;53.864;27.676;2024-02-28T03:23:27;5.03;;;4.93;;
64678;SDS011;51094;53.864;27.676;2024-02-28T03:25:54;4.57;;;4.47;;
64678;SDS011;51094;53.864;27.676;2024-02-28T03:28:24;4.47;;;4.38;;
64678;SDS011;51094;53.864;27.676;2024-02-28T03:30:51;4.30;;;4.20;;
64678;SDS011;51094;53.864;27.676;2024-02-28T03:33:18;4.30;;;4.20;;
64678;SDS011;51094;53.864;27.676;2024-02-28T03:35:45;3.80;;;3.70;;
64678;SDS011;51094;53.864;27.676;2024-02-28T03:38:12;4.00;;;3.90;;
64678;SDS011;51094;53.864;27.676;2024-02-28T03:40:39;3.72;;;3.63;;
64678;SDS011;51094;53.864;27.676;2024-02-28T03:43:07;3.65;;;3.55;;
64678;SDS011;51094;53.864;27.676;2024-02-28T03:45:37;3.50;;;3.40;;
64678;SDS011;51094;53.864;27.676;2024-02-28T03:48:10;4.00;;;3.90;;
64678;SDS011;51094;53.864;27.676;2024-02-28T03:50:38;3.63;;;3.53;;
64678;SDS011;51094;53.864;27.676;2024-02-28T03:53:07;3.70;;;3.60;;
64678;SDS011;51094;53.864;27.676;2024-02-28T03:55:35;4.10;;;3.90;;
64678;SDS011;51094;53.864;27.676;2024-02-28T03:58:01;3.83;;;3.72;;
64678;SDS011;51094;53.864;27.676;2024-02-28T04:00:29;4.18;;;4.07;;
64678;SDS011;51094;53.864;27.676;2024-02-28T04:02:56;4.60;;;4.50;;
64678;SDS011;51094;53.864;27.676;2024-02-28T04:05:23;5.07;;;4.88;;
64678;SDS011;51094;53.864;27.676;2024-02-28T04:07:50;5.10;;;4.90;;
64678;SDS011;51094;53.864;27.676;2024-02-28T04:10:20;6.15;;;5.95;;
64678;SDS011;51094;53.864;27.676;2024-02-28T04:12:48;7.47;;;7.18;;
64678;SDS011;51094;53.864;27.676;2024-02-28T04:15:15;7.10;;;6.90;;
64678;SDS011;51094;53.864;27.676;2024-02-28T04:17:43;7.75;;;7.45;;
64678;SDS011;51094;53.864;27.676;2024-02-28T04:20:13;8.30;;;8.00;;
64678;SDS011;51094;53.864;27.676;2024-02-28T04:22:40;7.45;;;7.15;;
64678;SDS011;51094;53.864;27.676;2024-02-28T04:25:08;6.95;;;6.65;;
64678;SDS011;51094;53.864;27.676;2024-02-28T04:27:36;6.97;;;6.78;;
64678;SDS011;51094;53.864;27.676;2024-02-28T04:30:04;5.93;;;5.72;;
64678;SDS011;51094;53.864;27.676;2024-02-28T04:32:33;5.78;;;5.57;;
64678;SDS011;51094;53.864;27.676;2024-02-28T04:35:02;6.32;;;6.13;;
64678;SDS011;51094;53.864;27.676;2024-02-28T04:37:30;7.38;;;7.07;;
64678;SDS011;51094;53.864;27.676;2024-02-28T04:39:57;7.07;;;6.88;;
64678;SDS011;51094;53.864;27.676;2024-02-28T04:42:24;6.28;;;6.07;;
64678;SDS011;51094;53.864;27.676;2024-02-28T04:44:51;5.55;;;5.35;;
64678;SDS011;51094;53.864;27.676;2024-02-28T04:47:18;4.65;;;4.55;;
64678;SDS011;51094;53.864;27.676;2024-02-28T04:49:55;4.90;;;4.80;;
64678;SDS011;51094;53.864;27.676;2024-02-28T04:52:22;4.80;;;4.60;;
64678;SDS011;51094;53.864;27.676;2024-02-28T04:54:50;4.68;;;4.57;;
64678;SDS011;51094;53.864;27.676;2024-02-28T04:57:23;4.90;;;4.70;;
64678;SDS011;51094;53.864;27.676;2024-02-28T04:59:50;4.90;;;4.80;;
64678;SDS011;51094;53.864;27.676;2024-02-28T05:02:20;5.20;;;5.07;;
64678;SDS011;51094;53.864;27.676;2024-02-28T05:04:52;5.82;;;5.63;;
64678;SDS011;51094;53.864;27.676;2024-02-28T05:07:19;5.63;;;5.43;;
64678;SDS011;51094;53.864;27.676;2024-02-28T05:09:46;5.90;;;5.70;;
64678;SDS011;51094;53.864;27.676;2024-02-28T05:12:16;5.70;;;5.50;;
64678;SDS011;51094;53.864;27.676;2024-02-28T05:14:45;5.40;;;5.20;;
64678;SDS011;51094;53.864;27.676;2024-02-28T05:17:24;6.00;;;5.80;;
64678;SDS011;51094;53.864;27.676;2024-02-28T05:19:51;6.63;;;6.43;;
64678;SDS011;51094;53.864;27.676;2024-02-28T05:22:18;6.47;;;6.28;;
64678;SDS011;51094;53.864;27.676;2024-02-28T05:24:46;5.43;;;5.22;;
64678;SDS011;51094;53.864;27.676;2024-02-28T05:27:13;5.53;;;5.32;;
64678;SDS011;51094;53.864;27.676;2024-02-28T05:29:42;5.82;;;5.63;;
64678;SDS011;51094;53.864;27.676;2024-02-28T05:32:11;5.95;;;5.68;;
64678;SDS011;51094;53.864;27.676;2024-02-28T05:34:38;5.32;;;5.13;;
64678;SDS011;51094;53.864;27.676;2024-02-28T05:37:08;5.13;;;4.93;;
64678;SDS011;51094;53.864;27.676;2024-02-28T05:39:38;5.43;;;5.28;;
64678;SDS011;51094;53.864;27.676;2024-02-28T05:42:05;5.28;;;5.07;;
64678;SDS011;51094;53.864;27.676;2024-02-28T05:44:32;5.50;;;5.30;;
64678;SDS011;51094;53.864;27.676;2024-02-28T05:47:03;5.00;;;4.82;;
64678;SDS011;51094;53.864;27.676;2024-02-28T05:49:31;4.53;;;4.43;;
64678;SDS011;51094;53.864;27.676;2024-02-28T05:51:57;4.90;;;4.70;;
64678;SDS011;51094;53.864;27.676;2024-02-28T05:54:25;4.32;;;4.22;;
64678;SDS011;51094;53.864;27.676;2024-02-28T05:56:55;4.50;;;4.40;;
64678;SDS011;51094;53.864;27.676;2024-02-28T05:59:25;4.82;;;4.72;;
64678;SDS011;51094;53.864;27.676;2024-02-28T06:01:53;4.75;;;4.55;;
64678;SDS011;51094;53.864;27.676;2024-02-28T06:04:20;5.90;;;5.60;;
64678;SDS011;51094;53.864;27.676;2024-02-28T06:06:47;5.90;;;5.70;;
64678;SDS011;51094;53.864;27.676;2024-02-28T06:09:15;6.00;;;5.80;;
64678;SDS011;51094;53.864;27.676;2024-02-28T06:11:42;6.18;;;5.97;;
64678;SDS011;51094;53.864;27.676;2024-02-28T06:14:09;5.75;;;5.55;;
64678;SDS011;51094;53.864;27.676;2024-02-28T06:16:39;5.10;;;5.00;;
64678;SDS011;51094;53.864;27.676;2024-02-28T06:19:06;4.82;;;4.70;;
64678;SDS011;51094;53.864;27.676;2024-02-28T06:21:33;4.75;;;4.55;;
64678;SDS011;51094;53.864;27.676;2024-02-28T06:24:00;5.38;;;5.18;;
64678;SDS011;51094;53.864;27.676;2024-02-28T06:26:27;4.35;;;4.18;;
64678;SDS011;51094;53.864;27.676;2024-02-28T06:28:54;3.70;;;3.60;;
64678;SDS011;51094;53.864;27.676;2024-02-28T06:31:27;4.40;;;4.30;;
64678;SDS011;51094;53.864;27.676;2024-02-28T06:36:25;4.20;;;4.10;;
64678;SDS011;51094;53.864;27.676;2024-02-28T06:38:52;4.60;;;4.50;;
64678;SDS011;51094;53.864;27.676;2024-02-28T06:41:19;4.72;;;4.60;;
64678;SDS011;51094;53.864;27.676;2024-02-28T06:43:46;4.53;;;4.40;;
64678;SDS011;51094;53.864;27.676;2024-02-28T06:46:13;4.78;;;4.65;;
64678;SDS011;51094;53.864;27.676;2024-02-28T06:48:44;5.30;;;5.10;;
64678;SDS011;51094;53.864;27.676;2024-02-28T06:51:16;5.53;;;5.32;;
64678;SDS011;51094;53.864;27.676;2024-02-28T06:53:44;5.40;;;5.30;;
64678;SDS011;51094;53.864;27.676;2024-02-28T06:56:11;5.32;;;5.13;;
64678;SDS011;51094;53.864;27.676;2024-02-28T06:58:38;4.90;;;4.70;;
64678;SDS011;51094;53.864;27.676;2024-02-28T07:01:08;4.68;;;4.57;;
64678;SDS011;51094;53.864;27.676;2024-02-28T07:03:39;5.60;;;5.40;;
64678;SDS011;51094;53.864;27.676;2024-02-28T07:06:07;5.70;;;5.50;;
64678;SDS011;51094;53.864;27.676;2024-02-28T07:08:33;5.55;;;5.32;;
64678;SDS011;51094;53.864;27.676;2024-02-28T07:11:03;5.10;;;4.90;;
64678;SDS011;51094;53.864;27.676;2024-02-28T07:13:30;5.80;;;5.60;;
64678;SDS011;51094;53.864;27.676;2024-02-28T07:15:57;5.63;;;5.43;;
64678;SDS011;51094;53.864;27.676;2024-02-28T07:18:24;4.63;;;4.43;;
64678;SDS011;51094;53.864;27.676;2024-02-28T07:20:52;5.00;;;4.80;;
64678;SDS011;51094;53.864;27.676;2024-02-28T07:23:19;4.85;;;4.65;;
64678;SDS011;51094;53.864;27.676;2024-02-28T07:25:46;5.10;;;4.90;;
64678;SDS011;51094;53.864;27.676;2024-02-28T07:30:43;4.22;;;4.05;;
64678;SDS011;51094;53.864;27.676;2024-02-28T07:33:12;4.70;;;4.50;;
64678;SDS011;51094;53.864;27.676;2024-02-28T07:35:49;4.45;;;4.25;;
64678;SDS011;51094;53.864;27.676;2024-02-28T07:38:18;4.80;;;4.70;;
64678;SDS011;51094;53.864;27.676;2024-02-28T07:40:49;4.30;;;4.20;;
64678;SDS011;51094;53.864;27.676;2024-02-28T07:43:16;5.20;;;5.00;;
64678;SDS011;51094;53.864;27.676;2024-02-28T07:45:43;5.05;;;4.85;;
64678;SDS011;51094;53.864;27.676;2024-02-28T07:48:11;5.10;;;4.90;;
64678;SDS011;51094;53.864;27.676;2024-02-28T07:50:38;4.55;;;4.35;;
64678;SDS011;51094;53.864;27.676;2024-02-28T07:53:08;4.50;;;4.40;;
64678;SDS011;51094;53.864;27.676;2024-02-28T07:55:35;4.07;;;3.97;;
64678;SDS011;51094;53.864;27.676;2024-02-28T07:58:02;4.45;;;4.35;;
64678;SDS011;51094;53.864;27.676;2024-02-28T08:00:36;4.50;;;4.40;;
64678;SDS011;51094;53.864;27.676;2024-02-28T08:03:03;3.97;;;3.80;;
64678;SDS011;51094;53.864;27.676;2024-02-28T08:05:30;4.40;;;4.20;;
64678;SDS011;51094;53.864;27.676;2024-02-28T08:08:05;4.47;;;4.30;;
64678;SDS011;51094;53.864;27.676;2024-02-28T08:10:36;4.18;;;3.97;;
64678;SDS011;51094;53.864;27.676;2024-02-28T08:13:13;4.60;;;4.43;;
64678;SDS011;51094;53.864;27.676;2024-02-28T08:15:43;4.95;;;4.75;;
64678;SDS011;51094;53.864;27.676;2024-02-28T08:20:38;4.13;;;3.95;;
64678;SDS011;51094;53.864;27.676;2024-02-28T08:23:14;4.10;;;4.00;;
64678;SDS011;51094;53.864;27.676;2024-02-28T08:25:44;4.88;;;4.68;;
64678;SDS011;51094;53.864;27.676;2024-02-28T08:28:11;5.03;;;4.82;;
64678;SDS011;51094;53.864;27.676;2024-02-28T08:33:15;4.20;;;4.10;;
64678;SDS011;51094;53.864;27.676;2024-02-28T08:35:45;4.72;;;4.53;;
64678;SDS011;51094;53.864;27.676;2024-02-28T08:38:13;4.32;;;4.15;;
64678;SDS011;51094;53.864;27.676;2024-02-28T08:40:40;4.35;;;4.25;;
64678;SDS011;51094;53.864;27.676;2024-02-28T08:43:08;5.10;;;4.90;;
64678;SDS011;51094;53.864;27.676;2024-02-28T08:45:35;5.53;;;5.32;;
64678;SDS011;51094;53.864;27.676;2024-02-28T08:48:07;5.32;;;5.22;;
64678;SDS011;51094;53.864;27.676;2024-02-28T08:50:38;4.43;;;4.22;;
64678;SDS011;51094;53.864;27.676;2024-02-28T08:53:05;4.00;;;3.90;;
64678;SDS011;51094;53.864;27.676;2024-02-28T08:55:32;4.22;;;4.03;;
64678;SDS011;51094;53.864;27.676;2024-02-28T08:58:00;4.18;;;4.07;;
64678;SDS011;51094;53.864;27.676;2024-02-28T09:02:57;4.50;;;4.30;;
64678;SDS011;51094;53.864;27.676;2024-02-28T09:05:25;4.03;;;3.92;;
64678;SDS011;51094;53.864;27.676;2024-02-28T09:07:52;4.00;;;3.90;;
64678;SDS011;51094;53.864;27.676;2024-02-28T09:10:21;4.78;;;4.57;;
64678;SDS011;51094;53.864;27.676;2024-02-28T09:12:51;4.50;;;4.40;;
64678;SDS011;51094;53.864;27.676;2024-02-28T09:15:19;4.78;;;4.57;;
64678;SDS011;51094;53.864;27.676;2024-02-28T09:17:46;4.20;;;4.10;;
64678;SDS011;51094;53.864;27.676;2024-02-28T09:20:13;4.10;;;4.00;;
64678;SDS011;51094;53.864;27.676;2024-02-28T09:22:41;4.30;;;4.15;;
64678;SDS011;51094;53.864;27.676;2024-02-28T09:25:09;4.25;;;4.15;;
64678;SDS011;51094;53.864;27.676;2024-02-28T09:27:37;4.47;;;4.30;;
64678;SDS011;51094;53.864;27.676;2024-02-28T09:30:04;4.50;;;4.40;;
64678;SDS011;51094;53.864;27.676;2024-02-28T09:32:32;4.43;;;4.22;;
64678;SDS011;51094;53.864;27.676;2024-02-28T09:34:59;5.28;;;5.13;;
64678;SDS011;51094;53.864;27.676;2024-02-28T09:37:29;4.60;;;4.40;;
64678;SDS011;51094;53.864;27.676;2024-02-28T09:39:57;4.45;;;4.32;;
64678;SDS011;51094;53.864;27.676;2024-02-28T09:42:29;4.70;;;4.50;;
64678;SDS011;51094;53.864;27.676;2024-02-28T09:44:57;4.78;;;4.63;;
64678;SDS011;51094;53.864;27.676;2024-02-28T09:47:28;5.05;;;4.85;;
64678;SDS011;51094;53.864;27.676;2024-02-28T09:49:57;5.20;;;5.10;;
64678;SDS011;51094;53.864;27.676;2024-02-28T09:52:27;5.35;;;5.15;;
64678;SDS011;51094;53.864;27.676;2024-02-28T09:54:55;4.38;;;4.28;;
64678;SDS011;51094;53.864;27.676;2024-02-28T09:57:23;4.22;;;4.03;;
64678;SDS011;51094;53.864;27.676;2024-02-28T09:59:59;4.60;;;4.50;;
64678;SDS011;51094;53.864;27.676;2024-02-28T10:02:31;4.68;;;4.47;;
64678;SDS011;51094;53.864;27.676;2024-02-28T10:05:00;5.05;;;4.85;;
64678;SDS011;51094;53.864;27.676;2024-02-28T10:07:30;4.45;;;4.35;;
64678;SDS011;51094;53.864;27.676;2024-02-28T10:09:59;4.05;;;3.95;;
64678;SDS011;51094;53.864;27.676;2024-02-28T10:12:26;4.57;;;4.47;;
64678;SDS011;51094;53.864;27.676;2024-02-28T10:15:01;4.32;;;4.18;;
64678;SDS011;51094;53.864;27.676;2024-02-28T10:17:32;4.65;;;4.55;;
64678;SDS011;51094;53.864;27.676;2024-02-28T10:19:59;4.30;;;4.20;;
64678;SDS011;51094;53.864;27.676;2024-02-28T10:22:26;4.68;;;4.57;;
64678;SDS011;51094;53.864;27.676;2024-02-28T10:24:57;4.70;;;4.50;;
64678;SDS011;51094;53.864;27.676;2024-02-28T10:27:26;4.72;;;4.63;;
64678;SDS011;51094;53.864;27.676;2024-02-28T10:29:53;4.70;;;4.50;;
64678;SDS011;51094;53.864;27.676;2024-02-28T10:32:20;4.78;;;4.57;;
64678;SDS011;51094;53.864;27.676;2024-02-28T10:34:47;4.90;;;4.70;;
64678;SDS011;51094;53.864;27.676;2024-02-28T10:37:15;4.80;;;4.70;;
64678;SDS011;51094;53.864;27.676;2024-02-28T10:39:44;4.55;;;4.45;;
64678;SDS011;51094;53.864;27.676;2024-02-28T10:42:12;4.35;;;4.25;;
64678;SDS011;51094;53.864;27.676;2024-02-28T10:44:41;5.32;;;5.13;;
64678;SDS011;51094;53.864;27.676;2024-02-28T10:47:10;4.50;;;4.32;;
64678;SDS011;51094;53.864;27.676;2024-02-28T10:49:39;4.47;;;4.28;;
64678;SDS011;51094;53.864;27.676;2024-02-28T10:52:08;4.20;;;4.10;;
64678;SDS011;51094;53.864;27.676;2024-02-28T10:54:40;4.50;;;4.35;;
64678;SDS011;51094;53.864;27.676;2024-02-28T10:57:12;4.45;;;4.30;;
64678;SDS011;51094;53.864;27.676;2024-02-28T10:59:40;4.25;;;4.10;;
64678;SDS011;51094;53.864;27.676;2024-02-28T11:02:16;4.30;;;4.20;;
64678;SDS011;51094;53.864;27.676;2024-02-28T11:04:43;4.20;;;4.10;;
64678;SDS011;51094;53.864;27.676;2024-02-28T11:07:19;3.95;;;3.85;;
64678;SDS011;51094;53.864;27.676;2024-02-28T11:09:53;4.10;;;4.00;;
64678;SDS011;51094;53.864;27.676;2024-02-28T11:12:25;4.30;;;4.18;;
64678;SDS011;51094;53.864;27.676;2024-02-28T11:15:01;4.20;;;4.10;;
64678;SDS011;51094;53.864;27.676;2024-02-28T11:17:30;4.47;;;4.28;;
64678;SDS011;51094;53.864;27.676;2024-02-28T11:19:58;4.10;;;3.95;;
64678;SDS011;51094;53.864;27.676;2024-02-28T11:22:28;4.43;;;4.32;;
64678;SDS011;51094;53.864;27.676;2024-02-28T11:25:01;4.45;;;4.35;;
64678;SDS011;51094;53.864;27.676;2024-02-28T11:27:28;3.92;;;3.83;;
64678;SDS011;51094;53.864;27.676;2024-02-28T11:29:55;4.13;;;3.92;;
64678;SDS011;51094;53.864;27.676;2024-02-28T11:32:25;4.15;;;4.03;;
64678;SDS011;51094;53.864;27.676;2024-02-28T11:34:52;4.40;;;4.30;;
64678;SDS011;51094;53.864;27.676;2024-02-28T11:37:21;4.35;;;4.15;;
64678;SDS011;51094;53.864;27.676;2024-02-28T11:39:48;4.55;;;4.35;;
64678;SDS011;51094;53.864;27.676;2024-02-28T11:42:15;4.28;;;4.18;;
64678;SDS011;51094;53.864;27.676;2024-02-28T11:44:43;4.50;;;4.30;;
64678;SDS011;51094;53.864;27.676;2024-02-28T11:47:23;3.83;;;3.70;;
64678;SDS011;51094;53.864;27.676;2024-02-28T11:49:52;4.10;;;3.90;;
64678;SDS011;51094;53.864;27.676;2024-02-28T11:52:22;4.60;;;4.40;;
64678;SDS011;51094;53.864;27.676;2024-02-28T11:54:49;4.72;;;4.50;;
64678;SDS011;51094;53.864;27.676;2024-02-28T11:57:17;4.18;;;4.07;;
64678;SDS011;51094;53.864;27.676;2024-02-28T11:59:44;3.88;;;3.78;;
64678;SDS011;51094;53.864;27.676;2024-02-28T12:02:14;3.97;;;3.78;;
64678;SDS011;51094;53.864;27.676;2024-02-28T12:04:42;3.67;;;3.58;;
64678;SDS011;51094;53.864;27.676;2024-02-28T12:07:11;4.20;;;4.10;;
64678;SDS011;51094;53.864;27.676;2024-02-28T12:09:38;3.90;;;3.80;;
64678;SDS011;51094;53.864;27.676;2024-02-28T12:12:11;4.18;;;4.07;;
64678;SDS011;51094;53.864;27.676;2024-02-28T12:14:47;3.70;;;3.60;;
64678;SDS011;51094;53.864;27.676;2024-02-28T12:17:24;3.72;;;3.63;;
64678;SDS011;51094;53.864;27.676;2024-02-28T12:19:54;3.65;;;3.55;;
64678;SDS011;51094;53.864;27.676;2024-02-28T12:22:25;3.90;;;3.80;;
64678;SDS011;51094;53.864;27.676;2024-02-28T12:24:59;4.10;;;3.90;;
64678;SDS011;51094;53.864;27.676;2024-02-28T12:27:39;3.50;;;3.40;;
64678;SDS011;51094;53.864;27.676;2024-02-28T12:30:08;4.03;;;3.83;;
64678;SDS011;51094;53.864;27.676;2024-02-28T12:32:38;5.78;;;5.53;;
64678;SDS011;51094;53.864;27.676;2024-02-28T12:35:16;3.97;;;3.88;;
64678;SDS011;51094;53.864;27.676;2024-02-28T12:37:50;4.28;;;4.07;;
64678;SDS011;51094;53.864;27.676;2024-02-28T12:40:23;4.45;;;4.25;;
64678;SDS011;51094;53.864;27.676;2024-02-28T12:43:02;4.10;;;4.00;;
64678;SDS011;51094;53.864;27.676;2024-02-28T12:45:36;4.07;;;3.97;;
64678;SDS011;51094;53.864;27.676;2024-02-28T12:48:09;3.90;;;3.80;;
64678;SDS011;51094;53.864;27.676;2024-02-28T12:50:46;3.67;;;3.58;;
64678;SDS011;51094;53.864;27.676;2024-02-28T12:53:13;3.60;;;3.50;;
64678;SDS011;51094;53.864;27.676;2024-02-28T12:55:42;4.47;;;4.32;;
64678;SDS011;51094;53.864;27.676;2024-02-28T12:58:11;3.80;;;3.70;;
64678;SDS011;51094;53.864;27.676;2024-02-28T13:00:38;3.72;;;3.63;;
64678;SDS011;51094;53.864;27.676;2024-02-28T13:03:06;3.50;;;3.40;;
64678;SDS011;51094;53.864;27.676;2024-02-28T13:05:35;4.15;;;3.97;;
64678;SDS011;51094;53.864;27.676;2024-02-28T13:08:14;3.60;;;3.50;;
64678;SDS011;51094;53.864;27.676;2024-02-28T13:10:47;3.72;;;3.63;;
64678;SDS011;51094;53.864;27.676;2024-02-28T13:13:16;4.07;;;3.92;;
64678;SDS011;51094;53.864;27.676;2024-02-28T13:15:44;3.85;;;3.65;;
64678;SDS011;51094;53.864;27.676;2024-02-28T13:18:14;3.80;;;3.60;;
64678;SDS011;51094;53.864;27.676;2024-02-28T13:20:49;3.30;;;3.20;;
64678;SDS011;51094;53.864;27.676;2024-02-28T13:23:18;3.83;;;3.72;;
64678;SDS011;51094;53.864;27.676;2024-02-28T13:25:45;4.20;;;4.00;;
64678;SDS011;51094;53.864;27.676;2024-02-28T13:28:12;3.70;;;3.60;;
64678;SDS011;51094;53.864;27.676;2024-02-28T13:30:47;3.95;;;3.80;;
64678;SDS011;51094;53.864;27.676;2024-02-28T13:33:25;3.50;;;3.40;;
64678;SDS011;51094;53.864;27.676;2024-02-28T13:36:00;3.30;;;3.20;;
64678;SDS011;51094;53.864;27.676;2024-02-28T13:38:27;3.33;;;3.22;;
64678;SDS011;51094;53.864;27.676;2024-02-28T13:43:24;3.30;;;3.20;;
64678;SDS011;51094;53.864;27.676;2024-02-28T13:45:54;2.92;;;2.83;;
64678;SDS011;51094;53.864;27.676;2024-02-28T13:48:26;3.20;;;3.10;;
64678;SDS011;51094;53.864;27.676;2024-02-28T13:50:59;4.07;;;3.97;;
64678;SDS011;51094;53.864;27.676;2024-02-28T13:53:26;3.58;;;3.47;;
64678;SDS011;51094;53.864;27.676;2024-02-28T13:55:56;3.10;;;3.00;;
64678;SDS011;51094;53.864;27.676;2024-02-28T13:58:25;3.22;;;3.13;;
64678;SDS011;51094;53.864;27.676;2024-02-28T14:01:01;3.20;;;3.10;;
64678;SDS011;51094;53.864;27.676;2024-02-28T14:03:29;3.30;;;3.20;;
64678;SDS011;51094;53.864;27.676;2024-02-28T14:06:04;3.40;;;3.30;;
64678;SDS011;51094;53.864;27.676;2024-02-28T14:08:31;3.25;;;3.15;;
64678;SDS011;51094;53.864;27.676;2024-02-28T14:11:11;3.17;;;3.08;;
64678;SDS011;51094;53.864;27.676;2024-02-28T14:13:38;3.38;;;3.28;;
64678;SDS011;51094;53.864;27.676;2024-02-28T14:16:06;3.20;;;3.10;;
64678;SDS011;51094;53.864;27.676;2024-02-28T14:18:34;3.28;;;3.08;;
64678;SDS011;51094;53.864;27.676;2024-02-28T14:21:01;3.08;;;2.97;;
64678;SDS011;51094;53.864;27.676;2024-02-28T14:23:36;3.42;;;3.33;;
64678;SDS011;51094;53.864;27.676;2024-02-28T14:26:08;3.58;;;3.47;;
64678;SDS011;51094;53.864;27.676;2024-02-28T14:28:37;3.75;;;3.63;;
64678;SDS011;51094;53.864;27.676;2024-02-28T14:31:05;3.58;;;3.47;;
64678;SDS011;51094;53.864;27.676;2024-02-28T14:33:32;3.42;;;3.33;;
64678;SDS011;51094;53.864;27.676;2024-02-28T14:35:59;3.40;;;3.30;;
64678;SDS011;51094;53.864;27.676;2024-02-28T14:38:27;3.40;;;3.30;;
64678;SDS011;51094;53.864;27.676;2024-02-28T14:40:55;3.58;;;3.47;;
64678;SDS011;51094;53.864;27.676;2024-02-28T14:43:22;3.53;;;3.42;;
64678;SDS011;51094;53.864;27.676;2024-02-28T14:45:56;3.33;;;3.22;;
64678;SDS011;51094;53.864;27.676;2024-02-28T14:48:23;4.18;;;3.97;;
64678;SDS011;51094;53.864;27.676;2024-02-28T14:50:51;3.45;;;3.35;;
64678;SDS011;51094;53.864;27.676;2024-02-28T14:53:20;3.47;;;3.38;;
64678;SDS011;51094;53.864;27.676;2024-02-28T14:55:49;3.30;;;3.20;;
64678;SDS011;51094;53.864;27.676;2024-02-28T14:58:19;3.28;;;3.17;;
64678;SDS011;51094;53.864;27.676;2024-02-28T15:00:49;3.53;;;3.42;;
64678;SDS011;51094;53.864;27.676;2024-02-28T15:03:19;3.75;;;3.65;;
64678;SDS011;51094;53.864;27.676;2024-02-28T15:05:49;3.53;;;3.42;;